createdAt,value
2017-06-23T00:00:02.716Z,52
2017-06-23T00:01:10.806Z,52
2017-06-23T00:02:18.896Z,52
2017-06-23T00:03:26.985Z,52
2017-06-23T00:04:35.136Z,52
2017-06-23T00:05:43.168Z,52
2017-06-23T00:06:51.257Z,52
2017-06-23T00:07:59.351Z,52
2017-06-23T00:09:07.442Z,52
2017-06-23T00:10:15.533Z,52
2017-06-23T00:11:23.624Z,52
2017-06-23T00:12:31.732Z,52
2017-06-23T00:13:39.806Z,52
2017-06-23T00:14:47.898Z,52
2017-06-23T00:15:55.986Z,52
2017-06-23T00:17:04.077Z,52
2017-06-23T00:18:12.167Z,52
2017-06-23T00:19:20.259Z,52
2017-06-23T00:20:28.349Z,52
2017-06-23T00:21:36.438Z,52
2017-06-23T00:22:44.528Z,52
2017-06-23T00:23:52.619Z,52
2017-06-23T00:25:00.762Z,52
2017-06-23T00:26:08.799Z,52
2017-06-23T00:27:16.889Z,52
2017-06-23T00:28:24.978Z,52
2017-06-23T00:29:33.070Z,52
2017-06-23T00:30:41.160Z,52
2017-06-23T00:31:49.250Z,52
2017-06-23T00:32:57.338Z,52
2017-06-23T00:34:05.428Z,52
2017-06-23T00:35:13.522Z,52
2017-06-23T00:36:21.612Z,52
2017-06-23T00:37:29.701Z,52
2017-06-23T00:38:37.791Z,52
2017-06-23T00:39:45.889Z,52
2017-06-23T00:40:53.984Z,52
2017-06-23T00:42:02.071Z,52
2017-06-23T00:43:10.163Z,52
2017-06-23T00:44:18.251Z,52
2017-06-23T00:45:26.344Z,52
2017-06-23T00:46:34.433Z,52
2017-06-23T00:47:42.524Z,52
2017-06-23T00:48:50.612Z,52
2017-06-23T00:49:58.701Z,52
2017-06-23T00:51:06.794Z,52
2017-06-23T00:52:14.884Z,52
2017-06-23T00:53:22.973Z,52
2017-06-23T00:54:31.066Z,52
2017-06-23T00:55:39.180Z,52
2017-06-23T00:56:47.267Z,53
2017-06-23T00:57:55.336Z,52
2017-06-23T00:59:04.315Z,53
2017-06-23T01:00:11.514Z,53
2017-06-23T01:01:19.604Z,53
2017-06-23T01:02:27.698Z,53
2017-06-23T01:03:35.786Z,53
2017-06-23T01:04:43.875Z,53
2017-06-23T01:05:51.967Z,52
2017-06-23T01:07:00.058Z,53
2017-06-23T01:08:08.148Z,52
2017-06-23T01:09:16.238Z,53
2017-06-23T01:10:24.328Z,52
2017-06-23T01:11:32.415Z,53
2017-06-23T01:12:40.532Z,52
2017-06-23T01:13:48.599Z,53
2017-06-23T01:14:56.688Z,53
2017-06-23T01:16:04.780Z,53
2017-06-23T01:17:12.870Z,52
2017-06-23T01:18:20.961Z,52
2017-06-23T01:19:29.074Z,53
2017-06-23T01:20:37.139Z,53
2017-06-23T01:21:45.229Z,52
2017-06-23T01:22:53.320Z,53
2017-06-23T01:24:01.412Z,52
2017-06-23T01:25:09.501Z,52
2017-06-23T01:26:17.590Z,52
2017-06-23T01:27:25.681Z,53
2017-06-23T01:28:33.769Z,53
2017-06-23T01:29:41.861Z,52
2017-06-23T01:30:49.949Z,53
2017-06-23T01:31:58.042Z,52
2017-06-23T01:33:06.133Z,53
2017-06-23T01:34:14.221Z,52
2017-06-23T01:35:22.311Z,53
2017-06-23T01:36:30.403Z,53
2017-06-23T01:37:38.493Z,52
2017-06-23T01:38:46.581Z,52
2017-06-23T01:39:54.672Z,53
2017-06-23T01:41:02.762Z,53
2017-06-23T01:42:10.851Z,53
2017-06-23T01:43:18.941Z,52
2017-06-23T01:44:27.033Z,53
2017-06-23T01:45:35.122Z,52
2017-06-23T01:46:43.238Z,52
2017-06-23T01:47:51.304Z,52
2017-06-23T01:48:59.394Z,53
2017-06-23T01:50:07.484Z,53
2017-06-23T01:51:15.573Z,52
2017-06-23T01:52:23.666Z,53
2017-06-23T01:53:31.756Z,53
2017-06-23T01:54:39.846Z,53
2017-06-23T01:55:47.937Z,52
2017-06-23T01:56:56.028Z,53
2017-06-23T01:58:04.116Z,52
2017-06-23T01:59:12.205Z,52
2017-06-23T02:00:20.297Z,53
2017-06-23T02:01:28.394Z,52
2017-06-23T02:02:36.478Z,52
2017-06-23T02:03:44.569Z,52
2017-06-23T02:04:52.659Z,52
2017-06-23T02:06:00.750Z,52
2017-06-23T02:07:08.840Z,52
2017-06-23T02:08:16.929Z,52
2017-06-23T02:09:25.017Z,52
2017-06-23T02:10:33.109Z,52
2017-06-23T02:11:41.199Z,52
2017-06-23T02:12:49.291Z,52
2017-06-23T02:13:57.380Z,52
2017-06-23T02:15:05.472Z,52
2017-06-23T02:16:13.562Z,52
2017-06-23T02:17:21.650Z,52
2017-06-23T02:18:29.740Z,52
2017-06-23T02:19:37.832Z,52
2017-06-23T02:20:45.977Z,52
2017-06-23T02:21:54.012Z,52
2017-06-23T02:23:02.100Z,53
2017-06-23T02:24:10.191Z,52
2017-06-23T02:25:18.286Z,52
2017-06-23T02:26:26.377Z,52
2017-06-23T02:27:34.468Z,52
2017-06-23T02:28:42.556Z,52
2017-06-23T02:29:50.646Z,52
2017-06-23T02:30:58.737Z,52
2017-06-23T02:32:06.826Z,52
2017-06-23T02:33:14.918Z,52
2017-06-23T02:34:23.010Z,52
2017-06-23T02:35:31.097Z,52
2017-06-23T02:36:39.190Z,52
2017-06-23T02:37:47.279Z,52
2017-06-23T02:38:55.369Z,52
2017-06-23T02:40:03.459Z,52
2017-06-23T02:41:11.550Z,52
2017-06-23T02:42:19.638Z,52
2017-06-23T02:43:27.730Z,52
2017-06-23T02:44:35.820Z,52
2017-06-23T02:45:43.910Z,53
2017-06-23T02:46:52.003Z,53
2017-06-23T02:48:00.091Z,52
2017-06-23T02:49:08.206Z,53
2017-06-23T02:50:16.285Z,53
2017-06-23T02:51:24.370Z,53
2017-06-23T02:52:32.459Z,52
2017-06-23T02:53:40.550Z,53
2017-06-23T02:54:48.669Z,52
2017-06-23T02:55:56.736Z,53
2017-06-23T02:57:04.826Z,53
2017-06-23T02:58:12.917Z,53
2017-06-23T02:59:21.012Z,52
2017-06-23T03:00:29.102Z,52
2017-06-23T03:01:37.193Z,52
2017-06-23T03:02:45.285Z,53
2017-06-23T03:03:53.374Z,52
2017-06-23T03:05:01.463Z,52
2017-06-23T03:06:09.554Z,52
2017-06-23T03:07:17.653Z,53
2017-06-23T03:08:25.744Z,53
2017-06-23T03:09:33.834Z,53
2017-06-23T03:10:41.926Z,53
2017-06-23T03:11:50.015Z,53
2017-06-23T03:12:58.102Z,53
2017-06-23T03:14:06.195Z,53
2017-06-23T03:15:14.285Z,53
2017-06-23T03:16:22.375Z,53
2017-06-23T03:17:30.460Z,53
2017-06-23T03:18:38.556Z,53
2017-06-23T03:19:46.733Z,53
2017-06-23T03:20:54.735Z,53
2017-06-23T03:22:02.826Z,53
2017-06-23T03:23:10.914Z,52
2017-06-23T03:24:19.004Z,52
2017-06-23T03:25:27.093Z,53
2017-06-23T03:26:35.184Z,53
2017-06-23T03:27:43.275Z,53
2017-06-23T03:28:51.364Z,53
2017-06-23T03:29:59.479Z,53
2017-06-23T03:31:07.543Z,53
2017-06-23T03:32:15.633Z,52
2017-06-23T03:33:23.721Z,53
2017-06-23T03:34:31.810Z,53
2017-06-23T03:35:39.900Z,51
2017-06-23T03:36:47.991Z,51
2017-06-23T03:37:56.084Z,51
2017-06-23T03:39:04.171Z,51
2017-06-23T03:40:12.261Z,51
2017-06-23T03:41:20.349Z,51
2017-06-23T03:42:28.439Z,51
2017-06-23T03:43:36.527Z,51
2017-06-23T03:44:44.617Z,50
2017-06-23T03:45:52.709Z,51
2017-06-23T03:47:01.062Z,50
2017-06-23T03:48:08.886Z,50
2017-06-23T03:49:16.977Z,50
2017-06-23T03:50:25.064Z,50
2017-06-23T03:51:33.152Z,50
2017-06-23T03:52:41.240Z,51
2017-06-23T03:53:49.331Z,50
2017-06-23T03:54:57.419Z,51
2017-06-23T03:56:05.510Z,51
2017-06-23T03:57:13.608Z,50
2017-06-23T03:58:21.699Z,50
2017-06-23T03:59:29.787Z,50
2017-06-23T04:00:37.875Z,50
2017-06-23T04:01:46.459Z,50
2017-06-23T04:02:54.052Z,50
2017-06-23T04:04:02.156Z,50
2017-06-23T04:05:10.232Z,51
2017-06-23T04:06:18.323Z,50
2017-06-23T04:07:26.411Z,51
2017-06-23T04:08:34.526Z,50
2017-06-23T04:09:42.600Z,50
2017-06-23T04:10:50.690Z,51
2017-06-23T04:11:58.778Z,50
2017-06-23T04:13:06.867Z,50
2017-06-23T04:14:14.958Z,50
2017-06-23T04:15:23.048Z,50
2017-06-23T04:16:31.137Z,50
2017-06-23T04:17:39.224Z,50
2017-06-23T04:18:47.313Z,50
2017-06-23T04:19:55.426Z,50
2017-06-23T04:21:03.493Z,50
2017-06-23T04:22:11.581Z,50
2017-06-23T04:23:19.670Z,50
2017-06-23T04:24:27.759Z,50
2017-06-23T04:25:35.849Z,50
2017-06-23T04:26:43.938Z,50
2017-06-23T04:27:52.076Z,50
2017-06-23T04:29:00.111Z,51
2017-06-23T04:30:08.204Z,50
2017-06-23T04:31:16.293Z,50
2017-06-23T04:32:24.382Z,51
2017-06-23T04:33:32.480Z,50
2017-06-23T04:34:40.568Z,51
2017-06-23T04:35:48.680Z,51
2017-06-23T04:36:56.745Z,50
2017-06-23T04:38:04.834Z,50
2017-06-23T04:39:12.923Z,50
2017-06-23T04:40:21.013Z,51
2017-06-23T04:41:29.103Z,50
2017-06-23T04:42:37.191Z,51
2017-06-23T04:43:45.280Z,51
2017-06-23T04:44:53.387Z,51
2017-06-23T04:46:01.816Z,51
2017-06-23T04:47:09.546Z,51
2017-06-23T04:48:17.637Z,51
2017-06-23T04:49:25.724Z,51
2017-06-23T04:50:33.813Z,51
2017-06-23T04:51:41.928Z,51
2017-06-23T04:52:50.000Z,51
2017-06-23T04:53:58.088Z,51
2017-06-23T04:55:06.416Z,51
2017-06-23T04:56:14.262Z,51
2017-06-23T04:57:22.358Z,50
2017-06-23T04:58:30.441Z,51
2017-06-23T04:59:38.531Z,51
2017-06-23T05:00:46.773Z,50
2017-06-23T05:01:54.747Z,51
2017-06-23T05:03:03.382Z,50
2017-06-23T05:04:10.899Z,51
2017-06-23T05:05:18.976Z,51
2017-06-23T05:06:27.063Z,51
2017-06-23T05:07:35.551Z,50
2017-06-23T05:08:43.242Z,51
2017-06-23T05:09:51.331Z,50
2017-06-23T05:10:59.421Z,51
2017-06-23T05:12:07.510Z,51
2017-06-23T05:13:15.598Z,51
2017-06-23T05:14:23.683Z,51
2017-06-23T05:15:31.773Z,50
2017-06-23T05:16:40.411Z,51
2017-06-23T05:17:47.955Z,50
2017-06-23T05:18:56.084Z,50
2017-06-23T05:20:04.184Z,51
2017-06-23T05:21:12.220Z,51
2017-06-23T05:22:20.312Z,51
2017-06-23T05:23:28.841Z,51
2017-06-23T05:24:36.489Z,51
2017-06-23T05:25:44.577Z,51
2017-06-23T05:26:52.666Z,51
2017-06-23T05:28:00.756Z,51
2017-06-23T05:29:08.958Z,51
2017-06-23T05:30:16.934Z,51
2017-06-23T05:31:25.040Z,52
2017-06-23T05:32:33.113Z,52
2017-06-23T05:33:41.244Z,52
2017-06-23T05:34:49.287Z,52
2017-06-23T05:35:57.386Z,52
2017-06-23T05:35:57.398Z,52
2017-06-23T05:37:05.465Z,52
2017-06-23T05:38:13.555Z,51
2017-06-23T05:39:21.793Z,51
2017-06-23T05:40:31.083Z,51
2017-06-23T05:41:37.823Z,51
2017-06-23T05:42:45.912Z,51
2017-06-23T05:43:53.999Z,51
2017-06-23T05:45:02.087Z,51
2017-06-23T05:46:10.849Z,51
2017-06-23T05:47:18.266Z,51
2017-06-23T05:48:26.355Z,51
2017-06-23T05:49:34.461Z,51
2017-06-23T05:50:42.533Z,51
2017-06-23T05:51:50.622Z,52
2017-06-23T05:52:58.711Z,52
2017-06-23T05:54:06.798Z,52
2017-06-23T05:55:14.889Z,52
2017-06-23T05:56:22.996Z,52
2017-06-23T05:57:31.075Z,52
2017-06-23T05:58:39.163Z,52
2017-06-23T05:59:47.252Z,53
2017-06-23T06:00:55.341Z,52
2017-06-23T06:02:03.427Z,52
2017-06-23T06:03:11.517Z,52
2017-06-23T06:04:19.607Z,53
2017-06-23T06:05:27.697Z,52
2017-06-23T06:06:35.786Z,53
2017-06-23T06:07:43.981Z,52
2017-06-23T06:08:51.964Z,52
2017-06-23T06:10:00.062Z,52
2017-06-23T06:11:08.152Z,52
2017-06-23T06:12:16.240Z,52
2017-06-23T06:13:24.885Z,53
2017-06-23T06:14:32.938Z,53
2017-06-23T06:15:40.510Z,53
2017-06-23T06:16:48.598Z,53
2017-06-23T06:17:56.689Z,53
2017-06-23T06:19:04.829Z,53
2017-06-23T06:20:12.873Z,53
2017-06-23T06:21:20.961Z,53
2017-06-23T06:39:30.387Z,54
2017-06-23T06:40:38.476Z,55
2017-06-23T06:41:46.567Z,55
2017-06-23T06:42:54.655Z,55
2017-06-23T06:44:02.747Z,55
2017-06-23T06:45:10.838Z,55
2017-06-23T06:46:18.923Z,55
2017-06-23T06:47:27.049Z,55
2017-06-23T06:48:35.099Z,55
2017-06-23T06:49:43.189Z,55
2017-06-23T06:50:51.278Z,55
2017-06-23T06:51:59.368Z,55
2017-06-23T06:53:07.458Z,55
2017-06-23T06:54:15.548Z,55
2017-06-23T06:55:23.634Z,55
2017-06-23T06:56:31.736Z,55
2017-06-23T06:57:39.811Z,55
2017-06-23T06:58:47.959Z,55
2017-06-23T06:59:56.090Z,55
2017-06-23T07:01:04.082Z,55
2017-06-23T07:02:12.171Z,55
2017-06-23T07:03:20.260Z,55
2017-06-23T07:04:28.405Z,55
2017-06-23T07:05:36.438Z,55
2017-06-23T07:06:44.527Z,55
2017-06-23T07:07:52.759Z,55
2017-06-23T07:09:00.706Z,56
2017-06-23T07:10:08.797Z,55
2017-06-23T07:11:16.885Z,55
2017-06-23T07:12:24.976Z,55
2017-06-23T07:13:33.075Z,56
2017-06-23T07:14:41.163Z,55
2017-06-23T07:15:49.254Z,55
2017-06-23T07:16:57.342Z,55
2017-06-23T07:18:05.431Z,55
2017-06-23T07:19:13.523Z,55
2017-06-23T07:20:21.778Z,55
2017-06-23T07:21:29.781Z,55
2017-06-23T07:22:37.793Z,55
2017-06-23T07:23:45.883Z,55
2017-06-23T07:24:53.971Z,55
2017-06-23T07:26:02.061Z,55
2017-06-23T07:27:10.152Z,55
2017-06-23T07:28:18.239Z,55
2017-06-23T07:29:26.327Z,55
2017-06-23T07:30:34.421Z,55
2017-06-23T07:31:42.509Z,55
2017-06-23T07:32:50.597Z,55
2017-06-23T07:33:58.688Z,54
2017-06-23T07:35:06.777Z,55
2017-06-23T07:36:14.868Z,55
2017-06-23T07:37:22.958Z,54
2017-06-23T07:38:31.139Z,54
2017-06-23T07:39:39.158Z,54
2017-06-23T07:40:47.230Z,54
2017-06-23T07:41:55.316Z,55
2017-06-23T07:43:03.406Z,54
2017-06-23T07:44:11.501Z,54
2017-06-23T07:45:19.585Z,54
2017-06-23T07:46:27.680Z,54
2017-06-23T07:47:35.786Z,54
2017-06-23T07:48:43.862Z,55
2017-06-23T07:49:51.951Z,54
2017-06-23T07:51:00.044Z,55
2017-06-23T07:52:08.130Z,54
2017-06-23T07:53:16.220Z,55
2017-06-23T07:54:24.310Z,54
2017-06-23T07:55:32.477Z,54
2017-06-23T07:56:40.608Z,54
2017-06-23T07:57:48.582Z,54
2017-06-23T07:58:56.671Z,55
2017-06-23T08:00:04.763Z,54
2017-06-23T08:01:12.851Z,54
2017-06-23T08:02:20.939Z,54
2017-06-23T08:03:29.029Z,54
2017-06-23T08:04:37.119Z,55
2017-06-23T08:05:45.209Z,54
2017-06-23T08:06:53.302Z,54
2017-06-23T08:08:01.391Z,54
2017-06-23T08:09:09.483Z,55
2017-06-23T08:10:17.571Z,55
2017-06-23T08:11:25.659Z,54
2017-06-23T08:12:33.834Z,54
2017-06-23T08:13:41.842Z,55
2017-06-23T08:14:49.933Z,54
2017-06-23T08:15:58.023Z,54
2017-06-23T08:17:06.113Z,54
2017-06-23T08:18:14.202Z,54
2017-06-23T08:19:22.294Z,54
2017-06-23T08:20:30.386Z,54
2017-06-23T08:21:38.476Z,54
2017-06-23T08:22:46.563Z,54
2017-06-23T08:23:54.653Z,54
2017-06-23T08:25:02.745Z,54
2017-06-23T08:26:10.845Z,54
2017-06-23T08:27:18.926Z,54
2017-06-23T08:28:27.017Z,54
2017-06-23T08:29:35.106Z,54
2017-06-23T08:30:43.195Z,54
2017-06-23T08:31:51.286Z,54
2017-06-23T08:32:59.376Z,54
2017-06-23T08:34:07.465Z,54
2017-06-23T08:35:15.556Z,54
2017-06-23T08:36:23.646Z,54
2017-06-23T08:37:31.738Z,54
2017-06-23T08:38:39.827Z,54
2017-06-23T08:39:47.918Z,54
2017-06-23T08:40:56.008Z,54
2017-06-23T08:42:04.098Z,54
2017-06-23T08:43:12.188Z,54
2017-06-23T08:44:20.278Z,54
2017-06-23T08:45:28.368Z,54
2017-06-23T08:46:36.458Z,54
2017-06-23T08:47:44.549Z,54
2017-06-23T08:48:52.637Z,53
2017-06-23T08:50:00.964Z,54
2017-06-23T08:51:08.820Z,53
2017-06-23T08:52:16.911Z,54
2017-06-23T08:53:24.998Z,54
2017-06-23T08:54:33.090Z,54
2017-06-23T08:55:41.180Z,54
2017-06-23T08:56:49.274Z,54
2017-06-23T08:57:57.361Z,54
2017-06-23T08:59:05.452Z,54
2017-06-23T09:00:13.566Z,54
2017-06-23T09:01:21.633Z,54
2017-06-23T09:02:29.720Z,53
2017-06-23T09:03:37.812Z,54
2017-06-23T09:04:45.902Z,54
2017-06-23T09:05:53.992Z,54
2017-06-23T09:07:02.084Z,54
2017-06-23T09:08:10.173Z,54
2017-06-23T09:09:18.265Z,54
2017-06-23T09:10:26.357Z,54
2017-06-23T09:11:34.469Z,54
2017-06-23T09:12:42.534Z,54
2017-06-23T09:13:50.650Z,54
2017-06-23T09:14:58.723Z,54
2017-06-23T09:16:06.805Z,54
2017-06-23T09:17:14.897Z,53
2017-06-23T09:18:22.987Z,53
2017-06-23T09:19:31.078Z,53
2017-06-23T09:20:39.168Z,53
2017-06-23T09:21:47.280Z,53
2017-06-23T09:22:55.347Z,53
2017-06-23T09:24:03.447Z,53
2017-06-23T09:25:11.537Z,53
2017-06-23T09:26:19.627Z,53
2017-06-23T09:27:27.720Z,53
2017-06-23T09:28:35.810Z,53
2017-06-23T09:29:43.900Z,53
2017-06-23T09:30:51.988Z,53
2017-06-23T09:32:00.078Z,53
2017-06-23T09:33:08.169Z,53
2017-06-23T09:34:16.260Z,53
2017-06-23T09:35:24.353Z,53
2017-06-23T09:36:32.441Z,53
2017-06-23T09:37:40.532Z,53
2017-06-23T09:38:48.625Z,53
2017-06-23T09:39:56.713Z,53
2017-06-23T09:41:04.802Z,53
2017-06-23T09:42:12.937Z,53
2017-06-23T09:43:20.981Z,53
2017-06-23T09:44:29.076Z,53
2017-06-23T09:45:37.285Z,53
2017-06-23T09:46:45.264Z,53
2017-06-23T09:47:53.355Z,53
2017-06-23T09:49:01.478Z,53
2017-06-23T09:50:09.543Z,53
2017-06-23T09:51:17.636Z,53
2017-06-23T09:52:25.725Z,53
2017-06-23T09:53:33.815Z,53
2017-06-23T09:54:41.907Z,53
2017-06-23T09:55:49.997Z,53
2017-06-23T09:56:58.086Z,53
2017-06-23T09:58:06.175Z,53
2017-06-23T09:59:14.268Z,53
2017-06-23T10:00:22.357Z,53
2017-06-23T10:01:30.449Z,53
2017-06-23T10:02:38.541Z,53
2017-06-23T10:03:46.637Z,53
2017-06-23T10:04:54.726Z,53
2017-06-23T10:06:02.817Z,53
2017-06-23T10:07:10.908Z,53
2017-06-23T10:08:18.999Z,53
2017-06-23T10:09:27.087Z,53
2017-06-23T10:10:35.182Z,53
2017-06-23T10:11:43.273Z,53
2017-06-23T10:12:51.362Z,53
2017-06-23T19:45:57.597Z,47
2017-06-23T19:47:05.587Z,46
2017-06-23T19:48:13.905Z,47
2017-06-23T19:49:21.942Z,47
2017-06-23T19:50:29.897Z,47
2017-06-23T19:51:37.931Z,47
2017-06-23T19:52:46.287Z,47
2017-06-23T19:53:54.381Z,47
2017-06-23T19:55:02.343Z,47
2017-06-23T19:56:10.415Z,47
2017-06-23T19:57:18.620Z,47
2017-06-23T19:58:26.719Z,47
2017-06-23T19:59:34.645Z,47
2017-06-23T20:00:42.743Z,47
2017-06-23T20:01:50.712Z,48
2017-06-23T20:02:58.913Z,47
2017-06-23T20:04:06.962Z,47
2017-06-23T20:05:15.226Z,47
2017-06-23T20:06:23.243Z,48
2017-06-23T20:07:31.409Z,48
2017-06-23T20:08:39.426Z,47
2017-06-23T20:09:47.731Z,47
2017-06-23T20:10:55.578Z,47
2017-06-23T20:12:03.794Z,48
2017-06-23T20:13:11.761Z,48
2017-06-23T20:14:19.984Z,47
2017-06-23T20:15:27.937Z,48
2017-06-23T20:16:35.965Z,48
2017-06-23T20:17:43.992Z,48
2017-06-23T20:18:52.212Z,47
2017-06-23T20:20:00.298Z,47
2017-06-23T20:21:08.264Z,47
2017-06-23T20:22:16.623Z,47
2017-06-23T20:23:24.521Z,47
2017-06-23T20:24:32.669Z,47
2017-06-23T20:25:40.859Z,47
2017-06-23T20:26:48.750Z,47
2017-06-23T20:27:56.911Z,47
2017-06-23T20:29:05.033Z,47
2017-06-23T20:30:13.014Z,47
2017-06-23T20:31:21.179Z,47
2017-06-23T20:32:29.345Z,47
2017-06-23T20:33:37.271Z,48
2017-06-23T20:34:45.472Z,48
2017-06-23T20:35:53.409Z,48
2017-06-23T20:37:01.649Z,47
2017-06-23T20:38:09.699Z,48
2017-06-23T20:39:17.889Z,48
2017-06-23T20:40:26.037Z,48
2017-06-23T20:41:34.188Z,48
2017-06-23T20:42:42.281Z,48
2017-06-23T20:43:50.279Z,48
2017-06-23T20:44:58.523Z,47
2017-06-23T20:46:06.542Z,47
2017-06-23T20:47:14.446Z,47
2017-06-23T20:48:22.700Z,47
2017-06-23T20:49:30.804Z,47
2017-06-23T20:50:38.825Z,47
2017-06-23T20:51:47.084Z,48
2017-06-23T20:52:54.892Z,48
2017-06-23T20:54:02.995Z,48
2017-06-23T20:55:11.097Z,48
2017-06-23T20:56:19.226Z,48
2017-06-23T20:57:27.394Z,48
2017-06-23T20:58:35.450Z,48
2017-06-23T20:59:43.513Z,48
2017-06-23T21:00:51.571Z,48
2017-06-23T21:01:59.742Z,48
2017-06-23T21:03:07.929Z,48
2017-06-23T21:04:15.887Z,48
2017-06-23T21:05:24.039Z,48
2017-06-23T21:06:32.107Z,48
2017-06-23T21:07:40.148Z,48
2017-06-23T21:08:48.162Z,48
2017-06-23T21:09:56.337Z,48
2017-06-23T21:11:04.305Z,48
2017-06-23T21:12:12.475Z,48
2017-06-23T21:13:20.567Z,47
2017-06-23T21:14:28.692Z,48
2017-06-23T21:15:36.754Z,48
2017-06-23T21:16:44.876Z,48
2017-06-23T21:17:52.826Z,48
2017-06-23T21:19:01.056Z,48
2017-06-23T21:20:08.988Z,48
2017-06-23T21:21:17.105Z,48
2017-06-23T21:22:25.377Z,48
2017-06-23T21:23:33.521Z,48
2017-06-23T21:24:41.681Z,48
2017-06-23T21:25:49.527Z,48
2017-06-23T21:26:57.628Z,48
2017-06-23T21:28:05.658Z,48
2017-06-23T21:29:14.004Z,48
2017-06-23T21:30:22.077Z,48
2017-06-23T21:31:30.191Z,48
2017-06-23T21:32:38.253Z,48
2017-06-23T21:33:46.161Z,48
2017-06-23T21:34:54.284Z,47
2017-06-23T21:36:02.528Z,47
2017-06-23T21:37:10.502Z,48
2017-06-23T21:38:18.519Z,48
2017-06-23T21:39:26.688Z,48
2017-06-23T21:40:34.895Z,48
2017-06-23T21:41:42.884Z,48
2017-06-23T21:42:50.881Z,48
2017-06-23T21:43:58.904Z,48
2017-06-23T21:45:07.260Z,48
2017-06-23T21:46:15.198Z,48
2017-06-23T21:47:23.195Z,48
2017-06-23T21:48:31.344Z,48
2017-06-23T21:49:39.496Z,48
2017-06-23T21:50:47.520Z,48
2017-06-23T21:51:55.643Z,48
2017-06-23T21:53:03.905Z,48
2017-06-23T21:54:11.971Z,47
2017-06-23T21:55:19.962Z,48
2017-06-23T21:56:27.978Z,48
2017-06-23T21:57:36.039Z,47
2017-06-23T21:58:43.991Z,48
2017-06-23T21:59:52.392Z,48
2017-06-23T22:01:00.356Z,48
2017-06-23T22:02:08.441Z,48
2017-06-23T22:03:16.373Z,48
2017-06-23T22:04:24.796Z,48
2017-06-23T22:05:32.754Z,48
2017-06-23T22:06:40.975Z,48
2017-06-23T22:07:48.934Z,48
2017-06-23T22:08:57.022Z,48
2017-06-23T22:10:05.033Z,47
2017-06-23T22:11:13.161Z,48
2017-06-23T22:12:21.247Z,48
2017-06-23T22:13:29.408Z,48
2017-06-23T22:14:37.633Z,48
2017-06-23T22:15:45.593Z,48
2017-06-23T22:16:53.548Z,48
2017-06-23T22:18:01.723Z,48
2017-06-23T22:19:09.698Z,48
2017-06-23T22:20:18.092Z,48
2017-06-23T22:21:25.895Z,48
2017-06-23T22:22:33.864Z,48
2017-06-23T22:23:41.953Z,48
2017-06-23T22:24:50.043Z,48
2017-06-23T22:25:58.134Z,48
2017-06-23T22:27:06.224Z,48
2017-06-23T22:28:14.314Z,48
2017-06-23T22:29:22.405Z,48
2017-06-23T22:30:30.494Z,48
2017-06-23T22:31:38.586Z,48
2017-06-23T22:32:46.674Z,48
2017-06-23T22:33:54.770Z,48
2017-06-23T22:35:02.858Z,48
2017-06-23T22:36:10.950Z,48
2017-06-23T22:37:19.041Z,48
2017-06-23T22:38:27.131Z,48
2017-06-23T22:39:35.222Z,48
2017-06-23T22:40:43.313Z,48
2017-06-23T22:41:51.405Z,48
2017-06-23T22:42:59.494Z,48
2017-06-23T22:44:07.582Z,48
2017-06-23T22:45:15.682Z,48
2017-06-23T22:46:23.770Z,48
2017-06-23T22:47:31.855Z,48
2017-06-23T22:48:39.944Z,48
2017-06-23T22:49:48.037Z,48
2017-06-23T22:50:56.125Z,48
2017-06-23T22:52:04.240Z,48
2017-06-23T22:53:12.306Z,48
2017-06-23T22:54:20.397Z,48
2017-06-23T22:55:28.486Z,48
2017-06-23T22:56:36.575Z,48
2017-06-23T22:57:44.668Z,48
2017-06-23T22:58:52.755Z,48
2017-06-23T23:00:01.113Z,48
2017-06-23T23:01:08.938Z,48
2017-06-23T23:02:17.028Z,47
2017-06-23T23:03:25.118Z,48
2017-06-23T23:04:33.206Z,48
2017-06-23T23:05:41.297Z,47
2017-06-23T23:06:49.388Z,48
2017-06-23T23:07:57.479Z,47
2017-06-23T23:09:05.594Z,47
2017-06-23T23:10:13.661Z,48
2017-06-23T23:11:21.753Z,48
2017-06-23T23:12:29.840Z,48
2017-06-23T23:13:37.930Z,48
2017-06-23T23:14:46.021Z,48
2017-06-23T23:15:54.111Z,47
2017-06-23T23:17:02.202Z,48
2017-06-23T23:18:10.300Z,48
2017-06-23T23:19:18.391Z,48
2017-06-23T23:20:26.481Z,48
2017-06-23T23:21:34.573Z,48
2017-06-23T23:22:42.663Z,48
2017-06-23T23:23:50.754Z,48
2017-06-23T23:24:58.845Z,48
2017-06-23T23:26:06.943Z,48
2017-06-23T23:27:15.033Z,48
2017-06-23T23:28:23.123Z,48
2017-06-23T23:29:31.211Z,48
2017-06-23T23:30:39.303Z,48
2017-06-23T23:31:47.395Z,48
2017-06-23T23:32:55.485Z,48
2017-06-23T23:34:03.574Z,48
2017-06-23T23:35:11.664Z,48
